Impacts TAF Board INFO
FOR SITUATIONAL AWARENESS. NOT TO BE USED FOR FLIGHT PLANNING PURPOSES.
IDs:

KMIA - Miami Intl, FL, US

Issued at 0849 UTC 23 Mar 2017
Updated at 1018 UTC 23 Mar 2017
Potential Impact None Slight Moderate High
Time0953Z 23/11Z 23/12Z 23/13Z 23/14Z 23/15Z 23/16Z 23/17Z 23/18Z 23/19Z 23/20Z 23/21Z 23/22Z 23/23Z
Type OBS PRVL PRVL PRVL PRVL PRVL PRVL PRVL PRVL PRVL PRVL PRVL PRVL PRVL
VIS 10 >6 >6 >6 >6 >6 >6 >6 >6 >6 >6 >6 >6 >6
CIG -- -- -- -- -- -- 50 50 50 50 50 50 50 50
Cover CLR SKC SCT SCT SCT SCT BKN BKN BKN BKN BKN BKN BKN BKN
FltCat VFR VFR VFR VFR VFR VFR VFR VFR VFR VFR VFR VFR VFR VFR
WX -- -- VCSH VCSH VCSH VCSH VCTS VCTS VCTS VCTS VCTS VCTS VCSH VCSH
WDir 280 VRB 60 60 60 60 70 70 70 70 70 70 70 70
WSpd 3 3 8 8 8 8 14 14 14 14 14 14 15 15
WGst -- -- -- -- -- -- 24 24 24 24 24 24 25 25

Raw TAF
KMIA 230849Z 2309/2406 VRB03KT P6SM SKC
  FM231200 06008KT P6SM VCSH SCT030 SCT100
  FM231600 07014G24KT P6SM VCTS SCT025CB BKN050
  FM232200 07015G25KT P6SM VCSH SCT025 BKN050
  FM240300 07011KT P6SM SCT025 BKN050


Raw METAR
KMIA 230953Z 28003KT 10SM CLR 19/16 A3011 RMK AO2 SLP195 T01890161 $
KMIA 230853Z 00000KT 10SM CLR 19/16 A3010 RMK AO2 SLP193 T01940156 56012 $
KMIA 230753Z 00000KT 10SM CLR 19/16 A3011 RMK AO2 SLP194 98675 T01940156 $

METAR Board
Radar Display
Forecast Discussion

FOR SITUATIONAL AWARENESS. NOT TO BE USED FOR FLIGHT PLANNING PURPOSES.

Page loaded:  10:18 UTC  |   03:18 AM Pacific  |   04:18 AM Mountain  |   05:18 AM Central  |   06:18 AM Eastern

 

ADVISORIES

FORECASTS

FORECASTS

OBSERVATIONS

USER TOOLS

ABOUT US